sensor_id;sensor_type;location;lat;lon;timestamp;pressure;altitude;pressure_sealevel;temperature;humidity
1472;BME280;963;42.644;23.336;2024-01-06T00:00:54;94020.59;;;8.99;64.06
1472;BME280;963;42.644;23.336;2024-01-06T00:03:19;94021.13;;;9.08;64.08
1472;BME280;963;42.644;23.336;2024-01-06T00:05:44;94024.16;;;9.11;62.66
1472;BME280;963;42.644;23.336;2024-01-06T00:08:10;94024.97;;;9.15;62.39
1472;BME280;963;42.644;23.336;2024-01-06T00:10:35;94015.16;;;9.12;62.83
1472;BME280;963;42.644;23.336;2024-01-06T00:13:01;94012.84;;;9.06;64.41
1472;BME280;963;42.644;23.336;2024-01-06T00:15:26;93982.47;;;9.05;64.89
1472;BME280;963;42.644;23.336;2024-01-06T00:17:51;93996.69;;;9.04;66.68
1472;BME280;963;42.644;23.336;2024-01-06T00:20:17;94035.22;;;9.00;67.92
1472;BME280;963;42.644;23.336;2024-01-06T00:22:42;94024.97;;;9.15;68.36
1472;BME280;963;42.644;23.336;2024-01-06T00:25:09;94036.28;;;9.19;68.73
1472;BME280;963;42.644;23.336;2024-01-06T00:27:34;94025.84;;;9.22;68.74
1472;BME280;963;42.644;23.336;2024-01-06T00:30:00;94004.72;;;9.15;68.68
1472;BME280;963;42.644;23.336;2024-01-06T00:32:25;94032.03;;;9.11;68.89
1472;BME280;963;42.644;23.336;2024-01-06T00:34:51;94027.94;;;9.13;69.14
1472;BME280;963;42.644;23.336;2024-01-06T00:37:16;94022.81;;;9.20;68.39
1472;BME280;963;42.644;23.336;2024-01-06T00:39:41;94020.53;;;9.19;68.05
1472;BME280;963;42.644;23.336;2024-01-06T00:42:07;94035.16;;;9.20;68.31
1472;BME280;963;42.644;23.336;2024-01-06T00:44:35;94025.78;;;9.19;67.68
1472;BME280;963;42.644;23.336;2024-01-06T00:47:01;94029.88;;;9.16;67.54
1472;BME280;963;42.644;23.336;2024-01-06T00:49:26;94010.69;;;9.12;67.40
1472;BME280;963;42.644;23.336;2024-01-06T00:51:52;94002.13;;;8.92;67.60
1472;BME280;963;42.644;23.336;2024-01-06T00:54:17;94016.31;;;8.91;67.13
1472;BME280;963;42.644;23.336;2024-01-06T00:56:42;94016.88;;;9.00;67.29
1472;BME280;963;42.644;23.336;2024-01-06T00:59:08;94013.84;;;8.98;67.51
1472;BME280;963;42.644;23.336;2024-01-06T01:01:33;94014.19;;;8.97;67.82
1472;BME280;963;42.644;23.336;2024-01-06T01:03:59;94006.50;;;8.88;68.42
1472;BME280;963;42.644;23.336;2024-01-06T01:06:24;94022.25;;;8.88;68.49
1472;BME280;963;42.644;23.336;2024-01-06T01:08:50;94014.78;;;8.90;68.21
1472;BME280;963;42.644;23.336;2024-01-06T01:11:15;94007.97;;;8.86;67.56
1472;BME280;963;42.644;23.336;2024-01-06T01:13:41;94011.69;;;8.85;67.87
1472;BME280;963;42.644;23.336;2024-01-06T01:16:06;94016.81;;;8.77;68.64
1472;BME280;963;42.644;23.336;2024-01-06T01:18:31;94021.34;;;8.03;71.78
1472;BME280;963;42.644;23.336;2024-01-06T01:20:57;94001.47;;;8.57;69.42
1472;BME280;963;42.644;23.336;2024-01-06T01:23:22;94025.31;;;8.52;69.08
1472;BME280;963;42.644;23.336;2024-01-06T01:25:48;93998.41;;;8.55;69.04
1472;BME280;963;42.644;23.336;2024-01-06T01:28:13;94001.59;;;8.64;68.90
1472;BME280;963;42.644;23.336;2024-01-06T01:30:38;93990.28;;;8.60;68.60
1472;BME280;963;42.644;23.336;2024-01-06T01:33:04;93994.91;;;8.66;68.90
1472;BME280;963;42.644;23.336;2024-01-06T01:35:29;93990.34;;;8.63;68.94
1472;BME280;963;42.644;23.336;2024-01-06T01:37:54;93984.22;;;8.56;69.75
1472;BME280;963;42.644;23.336;2024-01-06T01:40:20;93982.28;;;8.53;69.32
1472;BME280;963;42.644;23.336;2024-01-06T01:42:45;94010.44;;;8.56;69.94
1472;BME280;963;42.644;23.336;2024-01-06T01:45:10;93976.63;;;8.51;69.58
1472;BME280;963;42.644;23.336;2024-01-06T01:47:36;93972.19;;;8.55;68.85
1472;BME280;963;42.644;23.336;2024-01-06T01:50:03;93992.34;;;8.51;68.73
1472;BME280;963;42.644;23.336;2024-01-06T01:52:29;93986.34;;;8.50;69.36
1472;BME280;963;42.644;23.336;2024-01-06T01:54:55;93956.91;;;8.37;69.38
1472;BME280;963;42.644;23.336;2024-01-06T01:57:23;93967.31;;;8.53;70.13
1472;BME280;963;42.644;23.336;2024-01-06T01:59:49;93979.53;;;8.45;70.12
1472;BME280;963;42.644;23.336;2024-01-06T02:02:15;93977.88;;;8.37;70.63
1472;BME280;963;42.644;23.336;2024-01-06T02:04:42;93949.53;;;8.24;70.99
1472;BME280;963;42.644;23.336;2024-01-06T02:07:07;93944.41;;;8.31;70.55
1472;BME280;963;42.644;23.336;2024-01-06T02:09:33;93977.63;;;7.37;73.48
1472;BME280;963;42.644;23.336;2024-01-06T02:11:58;93954.72;;;7.66;71.21
1472;BME280;963;42.644;23.336;2024-01-06T02:14:24;93946.00;;;7.97;69.68
1472;BME280;963;42.644;23.336;2024-01-06T02:16:49;93940.63;;;8.09;71.09
1472;BME280;963;42.644;23.336;2024-01-06T02:19:15;93935.53;;;8.16;71.69
1472;BME280;963;42.644;23.336;2024-01-06T02:21:43;93962.41;;;7.94;72.25
1472;BME280;963;42.644;23.336;2024-01-06T02:24:09;93930.72;;;7.99;68.95
1472;BME280;963;42.644;23.336;2024-01-06T02:26:34;93945.03;;;8.05;69.54
1472;BME280;963;42.644;23.336;2024-01-06T02:28:59;93936.03;;;8.22;68.40
1472;BME280;963;42.644;23.336;2024-01-06T02:31:26;93927.53;;;8.28;68.53
1472;BME280;963;42.644;23.336;2024-01-06T02:33:52;93930.91;;;8.29;69.00
1472;BME280;963;42.644;23.336;2024-01-06T02:36:17;93937.31;;;8.31;70.12
1472;BME280;963;42.644;23.336;2024-01-06T02:38:42;93930.56;;;8.30;71.11
1472;BME280;963;42.644;23.336;2024-01-06T02:41:08;93936.34;;;8.01;71.33
1472;BME280;963;42.644;23.336;2024-01-06T02:43:33;93904.78;;;7.74;71.07
1472;BME280;963;42.644;23.336;2024-01-06T02:45:59;93891.13;;;7.65;70.79
1472;BME280;963;42.644;23.336;2024-01-06T02:48:24;93921.56;;;7.54;70.72
1472;BME280;963;42.644;23.336;2024-01-06T02:50:49;93921.63;;;7.93;70.38
1472;BME280;963;42.644;23.336;2024-01-06T02:53:15;93915.94;;;8.10;69.70
1472;BME280;963;42.644;23.336;2024-01-06T02:55:40;93902.50;;;8.11;70.04
1472;BME280;963;42.644;23.336;2024-01-06T02:58:06;93897.22;;;8.08;70.72
1472;BME280;963;42.644;23.336;2024-01-06T03:00:31;93889.00;;;8.09;70.67
1472;BME280;963;42.644;23.336;2024-01-06T03:02:57;93897.97;;;8.08;71.34
1472;BME280;963;42.644;23.336;2024-01-06T03:05:22;93880.78;;;8.11;70.76
1472;BME280;963;42.644;23.336;2024-01-06T03:07:47;93892.03;;;8.11;70.77
1472;BME280;963;42.644;23.336;2024-01-06T03:10:13;93888.25;;;8.09;69.27
1472;BME280;963;42.644;23.336;2024-01-06T03:12:39;93884.88;;;7.89;69.70
1472;BME280;963;42.644;23.336;2024-01-06T03:15:05;93890.66;;;7.98;69.09
1472;BME280;963;42.644;23.336;2024-01-06T03:17:30;93901.28;;;8.05;68.96
1472;BME280;963;42.644;23.336;2024-01-06T03:19:56;93893.34;;;8.02;69.20
1472;BME280;963;42.644;23.336;2024-01-06T03:22:22;93877.63;;;8.02;69.28
1472;BME280;963;42.644;23.336;2024-01-06T03:24:47;93897.13;;;8.04;69.66
1472;BME280;963;42.644;23.336;2024-01-06T03:27:12;93858.38;;;7.91;69.29
1472;BME280;963;42.644;23.336;2024-01-06T03:29:38;93886.53;;;7.59;70.16
1472;BME280;963;42.644;23.336;2024-01-06T03:32:03;93892.50;;;7.78;69.96
1472;BME280;963;42.644;23.336;2024-01-06T03:34:29;93863.88;;;7.86;69.58
1472;BME280;963;42.644;23.336;2024-01-06T03:36:54;93884.59;;;7.94;69.14
1472;BME280;963;42.644;23.336;2024-01-06T03:39:20;93869.03;;;8.01;68.71
1472;BME280;963;42.644;23.336;2024-01-06T03:41:45;93872.34;;;7.98;69.12
1472;BME280;963;42.644;23.336;2024-01-06T03:44:10;93891.84;;;8.01;69.44
1472;BME280;963;42.644;23.336;2024-01-06T03:46:36;93900.53;;;8.05;69.16
1472;BME280;963;42.644;23.336;2024-01-06T03:49:01;93862.63;;;7.99;68.80
1472;BME280;963;42.644;23.336;2024-01-06T03:51:27;93863.38;;;7.99;69.30
1472;BME280;963;42.644;23.336;2024-01-06T03:53:52;93882.31;;;7.73;70.40
1472;BME280;963;42.644;23.336;2024-01-06T03:56:17;93866.09;;;7.83;69.03
1472;BME280;963;42.644;23.336;2024-01-06T03:58:43;93881.66;;;7.96;68.51
1472;BME280;963;42.644;23.336;2024-01-06T04:01:09;93882.66;;;7.52;70.82
1472;BME280;963;42.644;23.336;2024-01-06T04:03:35;93874.75;;;7.68;69.70
1472;BME280;963;42.644;23.336;2024-01-06T04:06:00;93870.63;;;7.87;68.13
1472;BME280;963;42.644;23.336;2024-01-06T04:08:26;93863.03;;;8.01;68.01
1472;BME280;963;42.644;23.336;2024-01-06T04:10:51;93891.31;;;7.92;69.13
1472;BME280;963;42.644;23.336;2024-01-06T04:13:17;93871.28;;;8.03;69.03
1472;BME280;963;42.644;23.336;2024-01-06T04:15:42;93870.25;;;8.07;68.67
1472;BME280;963;42.644;23.336;2024-01-06T04:18:07;93883.63;;;8.02;68.62
1472;BME280;963;42.644;23.336;2024-01-06T04:20:34;93879.66;;;7.89;69.41
1472;BME280;963;42.644;23.336;2024-01-06T04:23:00;93864.06;;;7.96;68.57
1472;BME280;963;42.644;23.336;2024-01-06T04:25:25;93848.06;;;8.01;68.44
1472;BME280;963;42.644;23.336;2024-01-06T04:27:51;93861.28;;;8.08;68.60
1472;BME280;963;42.644;23.336;2024-01-06T04:30:17;93883.69;;;8.06;69.20
1472;BME280;963;42.644;23.336;2024-01-06T04:32:43;93859.00;;;7.84;69.64
1472;BME280;963;42.644;23.336;2024-01-06T04:35:09;93876.41;;;7.96;69.38
1472;BME280;963;42.644;23.336;2024-01-06T04:37:35;93879.25;;;7.87;69.18
1472;BME280;963;42.644;23.336;2024-01-06T04:40:00;93895.56;;;8.00;69.23
1472;BME280;963;42.644;23.336;2024-01-06T04:42:26;93900.81;;;8.00;69.17
1472;BME280;963;42.644;23.336;2024-01-06T04:44:52;93903.13;;;8.05;68.89
1472;BME280;963;42.644;23.336;2024-01-06T04:47:17;93871.00;;;8.08;68.39
1472;BME280;963;42.644;23.336;2024-01-06T04:49:43;93882.53;;;8.03;68.72
1472;BME280;963;42.644;23.336;2024-01-06T04:52:09;93874.75;;;7.68;69.22
1472;BME280;963;42.644;23.336;2024-01-06T04:54:34;93887.22;;;7.94;68.88
1472;BME280;963;42.644;23.336;2024-01-06T04:57:00;93888.81;;;7.99;68.81
1472;BME280;963;42.644;23.336;2024-01-06T04:59:25;93882.75;;;7.95;69.17
1472;BME280;963;42.644;23.336;2024-01-06T05:01:51;93884.81;;;8.05;69.12
1472;BME280;963;42.644;23.336;2024-01-06T05:04:18;93882.94;;;8.05;69.95
1472;BME280;963;42.644;23.336;2024-01-06T05:06:43;93903.00;;;7.98;70.16
1472;BME280;963;42.644;23.336;2024-01-06T05:09:09;93884.97;;;7.93;70.11
1472;BME280;963;42.644;23.336;2024-01-06T05:11:34;93855.97;;;7.82;70.23
1472;BME280;963;42.644;23.336;2024-01-06T05:14:00;93904.31;;;7.34;72.04
1472;BME280;963;42.644;23.336;2024-01-06T05:16:25;93867.78;;;7.57;71.75
1472;BME280;963;42.644;23.336;2024-01-06T05:18:50;93867.16;;;7.63;71.58
1472;BME280;963;42.644;23.336;2024-01-06T05:21:16;93861.53;;;7.61;70.93
1472;BME280;963;42.644;23.336;2024-01-06T05:23:42;93861.13;;;7.59;71.39
1472;BME280;963;42.644;23.336;2024-01-06T05:26:07;93871.72;;;7.66;70.84
1472;BME280;963;42.644;23.336;2024-01-06T05:28:32;93852.97;;;7.64;70.88
1472;BME280;963;42.644;23.336;2024-01-06T05:30:58;93850.38;;;7.45;71.51
1472;BME280;963;42.644;23.336;2024-01-06T05:33:23;93850.38;;;7.45;71.13
1472;BME280;963;42.644;23.336;2024-01-06T05:35:49;93852.72;;;7.50;70.79
1472;BME280;963;42.644;23.336;2024-01-06T05:38:14;93837.94;;;7.22;71.21
1472;BME280;963;42.644;23.336;2024-01-06T05:40:40;93829.13;;;7.31;70.71
1472;BME280;963;42.644;23.336;2024-01-06T05:43:05;93843.69;;;7.47;70.03
1472;BME280;963;42.644;23.336;2024-01-06T05:45:31;93864.25;;;7.30;70.52
1472;BME280;963;42.644;23.336;2024-01-06T05:47:56;93856.72;;;7.44;70.18
1472;BME280;963;42.644;23.336;2024-01-06T05:50:22;93828.09;;;7.35;70.59
1472;BME280;963;42.644;23.336;2024-01-06T05:52:47;93861.88;;;6.89;72.02
1472;BME280;963;42.644;23.336;2024-01-06T05:55:14;93851.81;;;7.07;71.41
1472;BME280;963;42.644;23.336;2024-01-06T05:57:39;93858.50;;;6.89;72.48
1472;BME280;963;42.644;23.336;2024-01-06T06:00:08;93844.63;;;7.20;71.47
1472;BME280;963;42.644;23.336;2024-01-06T06:02:34;93837.13;;;7.18;71.12
1472;BME280;963;42.644;23.336;2024-01-06T06:05:00;93854.47;;;7.27;71.51
1472;BME280;963;42.644;23.336;2024-01-06T06:07:25;93837.75;;;7.31;71.20
1472;BME280;963;42.644;23.336;2024-01-06T06:09:50;93844.16;;;7.34;72.02
1472;BME280;963;42.644;23.336;2024-01-06T06:12:18;93834.63;;;7.26;71.66
1472;BME280;963;42.644;23.336;2024-01-06T06:14:43;93846.81;;;7.18;71.07
1472;BME280;963;42.644;23.336;2024-01-06T06:17:09;93852.25;;;7.09;71.66
1472;BME280;963;42.644;23.336;2024-01-06T06:19:34;93833.25;;;7.12;71.72
1472;BME280;963;42.644;23.336;2024-01-06T06:21:59;93821.56;;;7.26;71.34
1472;BME280;963;42.644;23.336;2024-01-06T06:24:25;93852.78;;;6.52;73.46
1472;BME280;963;42.644;23.336;2024-01-06T06:26:51;93845.44;;;6.89;72.83
1472;BME280;963;42.644;23.336;2024-01-06T06:29:16;93857.94;;;6.80;72.56
1472;BME280;963;42.644;23.336;2024-01-06T06:31:41;93833.38;;;6.84;72.95
1472;BME280;963;42.644;23.336;2024-01-06T06:34:10;93835.44;;;7.10;71.77
1472;BME280;963;42.644;23.336;2024-01-06T06:36:35;93852.25;;;7.29;71.54
1472;BME280;963;42.644;23.336;2024-01-06T06:39:01;93855.16;;;7.24;72.08
1472;BME280;963;42.644;23.336;2024-01-06T06:41:27;93860.53;;;7.31;71.82
1472;BME280;963;42.644;23.336;2024-01-06T06:43:52;93843.31;;;7.30;72.30
1472;BME280;963;42.644;23.336;2024-01-06T06:46:18;93856.19;;;7.38;72.21
1472;BME280;963;42.644;23.336;2024-01-06T06:48:43;93862.19;;;7.39;71.50
1472;BME280;963;42.644;23.336;2024-01-06T06:51:08;93832.84;;;7.30;71.20
1472;BME280;963;42.644;23.336;2024-01-06T06:53:35;93858.59;;;7.28;72.39
1472;BME280;963;42.644;23.336;2024-01-06T06:56:01;93852.94;;;7.26;72.20
1472;BME280;963;42.644;23.336;2024-01-06T06:58:26;93843.84;;;7.19;72.07
1472;BME280;963;42.644;23.336;2024-01-06T07:00:52;93850.00;;;7.27;72.57
1472;BME280;963;42.644;23.336;2024-01-06T07:03:19;93883.22;;;7.27;72.15
1472;BME280;963;42.644;23.336;2024-01-06T07:05:45;93847.72;;;7.26;72.23
1472;BME280;963;42.644;23.336;2024-01-06T07:08:10;93847.03;;;7.29;72.09
1472;BME280;963;42.644;23.336;2024-01-06T07:10:35;93852.94;;;7.26;72.25
1472;BME280;963;42.644;23.336;2024-01-06T07:13:01;93840.28;;;7.28;71.39
1472;BME280;963;42.644;23.336;2024-01-06T07:15:26;93836.03;;;7.39;71.23
1472;BME280;963;42.644;23.336;2024-01-06T07:17:51;93866.63;;;7.19;72.47
1472;BME280;963;42.644;23.336;2024-01-06T07:20:17;93829.81;;;7.28;71.64
1472;BME280;963;42.644;23.336;2024-01-06T07:22:42;93844.47;;;7.32;71.52
1472;BME280;963;42.644;23.336;2024-01-06T07:25:08;93845.38;;;7.40;72.35
1472;BME280;963;42.644;23.336;2024-01-06T07:27:33;93850.50;;;7.52;71.73
1472;BME280;963;42.644;23.336;2024-01-06T07:29:59;93846.94;;;7.60;71.76
1472;BME280;963;42.644;23.336;2024-01-06T07:32:24;93850.44;;;7.68;71.85
1472;BME280;963;42.644;23.336;2024-01-06T07:34:50;93844.16;;;7.72;71.52
1472;BME280;963;42.644;23.336;2024-01-06T07:37:16;93835.63;;;7.56;71.83
1472;BME280;963;42.644;23.336;2024-01-06T07:39:41;93840.78;;;7.72;71.98
1472;BME280;963;42.644;23.336;2024-01-06T07:42:07;93843.97;;;7.81;71.78
1472;BME280;963;42.644;23.336;2024-01-06T07:44:33;93833.28;;;7.90;71.24
1472;BME280;963;42.644;23.336;2024-01-06T07:46:58;93834.16;;;7.97;70.31
1472;BME280;963;42.644;23.336;2024-01-06T07:49:24;93834.91;;;7.98;70.57
1472;BME280;963;42.644;23.336;2024-01-06T07:51:49;93830.97;;;8.07;70.41
1472;BME280;963;42.644;23.336;2024-01-06T07:54:14;93831.78;;;8.11;70.52
1472;BME280;963;42.644;23.336;2024-01-06T07:56:40;93824.63;;;8.08;69.83
1472;BME280;963;42.644;23.336;2024-01-06T07:59:05;93818.47;;;8.20;69.17
1472;BME280;963;42.644;23.336;2024-01-06T08:01:31;93819.84;;;8.33;68.18
1472;BME280;963;42.644;23.336;2024-01-06T08:03:58;93836.25;;;8.30;68.54
1472;BME280;963;42.644;23.336;2024-01-06T08:06:24;93847.09;;;8.52;68.40
1472;BME280;963;42.644;23.336;2024-01-06T08:08:50;93830.00;;;8.58;68.31
1472;BME280;963;42.644;23.336;2024-01-06T08:11:15;93822.97;;;8.65;67.92
1472;BME280;963;42.644;23.336;2024-01-06T08:13:41;93843.16;;;8.61;67.49
1472;BME280;963;42.644;23.336;2024-01-06T08:16:06;93822.34;;;8.72;67.12
1472;BME280;963;42.644;23.336;2024-01-06T08:18:32;93816.88;;;8.84;67.42
1472;BME280;963;42.644;23.336;2024-01-06T08:20:57;93819.28;;;8.93;67.01
1472;BME280;963;42.644;23.336;2024-01-06T08:23:23;93819.19;;;8.89;66.71
1472;BME280;963;42.644;23.336;2024-01-06T08:25:48;93819.84;;;8.83;66.74
1472;BME280;963;42.644;23.336;2024-01-06T08:28:14;93833.06;;;8.63;67.96
1472;BME280;963;42.644;23.336;2024-01-06T08:30:44;93833.56;;;8.95;66.79
1472;BME280;963;42.644;23.336;2024-01-06T08:33:09;93790.47;;;8.24;68.84
1472;BME280;963;42.644;23.336;2024-01-06T08:35:35;93820.53;;;8.30;68.49
1472;BME280;963;42.644;23.336;2024-01-06T08:38:08;93813.41;;;8.54;67.67
1472;BME280;963;42.644;23.336;2024-01-06T08:40:34;93814.50;;;8.75;66.95
1472;BME280;963;42.644;23.336;2024-01-06T08:43:01;93809.16;;;8.68;68.26
1472;BME280;963;42.644;23.336;2024-01-06T08:45:26;93829.34;;;8.91;67.77
1472;BME280;963;42.644;23.336;2024-01-06T08:47:51;93824.00;;;8.84;67.31
1472;BME280;963;42.644;23.336;2024-01-06T08:50:17;93815.03;;;8.85;67.68
1472;BME280;963;42.644;23.336;2024-01-06T08:52:42;93824.75;;;9.11;66.93
1472;BME280;963;42.644;23.336;2024-01-06T08:55:08;93826.56;;;9.33;66.77
1472;BME280;963;42.644;23.336;2024-01-06T08:57:33;93796.63;;;9.07;67.71
1472;BME280;963;42.644;23.336;2024-01-06T08:59:59;93823.59;;;9.34;67.40
1472;BME280;963;42.644;23.336;2024-01-06T09:02:24;93803.44;;;9.42;66.62
1472;BME280;963;42.644;23.336;2024-01-06T09:04:49;93785.69;;;9.65;66.19
1472;BME280;963;42.644;23.336;2024-01-06T09:07:15;93802.88;;;9.59;66.47
1472;BME280;963;42.644;23.336;2024-01-06T09:09:42;93812.69;;;9.66;66.04
1472;BME280;963;42.644;23.336;2024-01-06T09:12:08;93807.91;;;9.71;65.35
1472;BME280;963;42.644;23.336;2024-01-06T09:14:33;93791.59;;;9.92;64.80
1472;BME280;963;42.644;23.336;2024-01-06T09:16:58;93780.44;;;9.65;66.39
1472;BME280;963;42.644;23.336;2024-01-06T09:19:24;93803.25;;;9.95;65.23
1472;BME280;963;42.644;23.336;2024-01-06T09:21:49;93786.97;;;10.16;64.66
1472;BME280;963;42.644;23.336;2024-01-06T09:24:15;93785.56;;;10.25;64.50
1472;BME280;963;42.644;23.336;2024-01-06T09:26:40;93763.41;;;10.26;64.04
1472;BME280;963;42.644;23.336;2024-01-06T09:29:05;93769.31;;;9.76;65.70
1472;BME280;963;42.644;23.336;2024-01-06T09:31:31;93739.63;;;10.12;65.14
1472;BME280;963;42.644;23.336;2024-01-06T09:34:00;93765.97;;;10.19;65.02
1472;BME280;963;42.644;23.336;2024-01-06T09:36:27;93776.03;;;10.10;64.94
1472;BME280;963;42.644;23.336;2024-01-06T09:38:52;93752.50;;;9.84;65.93
1472;BME280;963;42.644;23.336;2024-01-06T09:41:18;93752.94;;;9.93;65.86
1472;BME280;963;42.644;23.336;2024-01-06T09:43:43;93743.38;;;10.11;65.10
1472;BME280;963;42.644;23.336;2024-01-06T09:46:15;93757.69;;;10.17;64.94
1472;BME280;963;42.644;23.336;2024-01-06T09:48:43;93747.13;;;10.10;64.47
1472;BME280;963;42.644;23.336;2024-01-06T09:51:10;93730.75;;;10.27;64.36
1472;BME280;963;42.644;23.336;2024-01-06T09:53:42;93709.06;;;9.97;65.25
1472;BME280;963;42.644;23.336;2024-01-06T09:56:08;93741.16;;;9.39;68.11
1472;BME280;963;42.644;23.336;2024-01-06T09:58:35;93717.63;;;9.87;66.08
1472;BME280;963;42.644;23.336;2024-01-06T10:01:02;93723.81;;;10.05;65.78
1472;BME280;963;42.644;23.336;2024-01-06T10:03:28;93749.34;;;10.08;65.49
1472;BME280;963;42.644;23.336;2024-01-06T10:05:53;93712.69;;;10.22;65.06
1472;BME280;963;42.644;23.336;2024-01-06T10:08:18;93721.03;;;10.31;64.92
1472;BME280;963;42.644;23.336;2024-01-06T10:10:45;93698.56;;;10.41;64.69
1472;BME280;963;42.644;23.336;2024-01-06T10:13:10;93717.44;;;10.06;66.40
1472;BME280;963;42.644;23.336;2024-01-06T10:15:36;93693.91;;;10.20;65.89
1472;BME280;963;42.644;23.336;2024-01-06T10:18:01;93673.38;;;9.89;66.08
1472;BME280;963;42.644;23.336;2024-01-06T10:20:28;93725.66;;;9.64;67.64
1472;BME280;963;42.644;23.336;2024-01-06T10:22:54;93698.28;;;10.06;66.29
1472;BME280;963;42.644;23.336;2024-01-06T10:25:23;93694.47;;;10.03;66.33
1472;BME280;963;42.644;23.336;2024-01-06T10:27:48;93704.09;;;10.29;65.96
1472;BME280;963;42.644;23.336;2024-01-06T10:30:14;93683.78;;;10.22;65.92
1472;BME280;963;42.644;23.336;2024-01-06T10:32:43;93697.03;;;10.37;65.88
1472;BME280;963;42.644;23.336;2024-01-06T10:35:09;93685.78;;;9.92;67.03
1472;BME280;963;42.644;23.336;2024-01-06T10:37:35;93656.91;;;9.95;66.80
1472;BME280;963;42.644;23.336;2024-01-06T10:40:12;93683.81;;;10.26;66.33
1472;BME280;963;42.644;23.336;2024-01-06T10:42:39;93705.94;;;10.21;66.22
1472;BME280;963;42.644;23.336;2024-01-06T10:45:09;93652.78;;;10.46;65.65
1472;BME280;963;42.644;23.336;2024-01-06T10:47:36;93646.13;;;10.66;64.99
1472;BME280;963;42.644;23.336;2024-01-06T10:50:02;93661.53;;;10.13;66.48
1472;BME280;963;42.644;23.336;2024-01-06T10:52:28;93659.03;;;9.79;67.60
1472;BME280;963;42.644;23.336;2024-01-06T10:54:54;93653.69;;;10.16;67.17
1472;BME280;963;42.644;23.336;2024-01-06T10:57:20;93660.25;;;10.40;66.89
1472;BME280;963;42.644;23.336;2024-01-06T10:59:49;93648.91;;;10.29;66.68
1472;BME280;963;42.644;23.336;2024-01-06T11:02:15;93635.88;;;10.43;66.54
1472;BME280;963;42.644;23.336;2024-01-06T11:04:45;93632.09;;;9.89;68.79
1472;BME280;963;42.644;23.336;2024-01-06T11:07:12;93609.16;;;10.38;67.52
1472;BME280;963;42.644;23.336;2024-01-06T11:09:45;93623.56;;;10.61;66.49
1472;BME280;963;42.644;23.336;2024-01-06T11:12:12;93614.53;;;10.59;66.79
1472;BME280;963;42.644;23.336;2024-01-06T11:14:38;93602.63;;;10.90;66.34
1472;BME280;963;42.644;23.336;2024-01-06T11:17:04;93608.69;;;11.05;65.71
1472;BME280;963;42.644;23.336;2024-01-06T11:22:27;93598.59;;;11.21;63.66
1472;BME280;963;42.644;23.336;2024-01-06T11:25:05;93598.25;;;11.47;63.07
1472;BME280;963;42.644;23.336;2024-01-06T11:27:31;93598.28;;;11.79;62.80
1472;BME280;963;42.644;23.336;2024-01-06T11:29:58;93596.03;;;11.78;62.60
1472;BME280;963;42.644;23.336;2024-01-06T11:32:36;93572.66;;;12.08;60.47
1472;BME280;963;42.644;23.336;2024-01-06T11:35:11;93591.41;;;12.46;58.64
1472;BME280;963;42.644;23.336;2024-01-06T11:45:25;93557.25;;;13.05;55.09
1472;BME280;963;42.644;23.336;2024-01-06T11:47:54;93546.25;;;12.26;56.70
1472;BME280;963;42.644;23.336;2024-01-06T11:50:20;93534.91;;;12.43;56.23
1472;BME280;963;42.644;23.336;2024-01-06T11:52:46;93526.69;;;12.24;56.64
1472;BME280;963;42.644;23.336;2024-01-06T11:55:12;93524.75;;;12.42;56.74
1472;BME280;963;42.644;23.336;2024-01-06T11:57:37;93522.94;;;12.17;56.09
1472;BME280;963;42.644;23.336;2024-01-06T12:00:04;93524.13;;;11.99;56.48
1472;BME280;963;42.644;23.336;2024-01-06T12:02:29;93520.94;;;12.50;56.26
1472;BME280;963;42.644;23.336;2024-01-06T12:04:55;93508.41;;;12.75;55.35
1472;BME280;963;42.644;23.336;2024-01-06T12:07:21;93511.25;;;13.06;54.67
1472;BME280;963;42.644;23.336;2024-01-06T12:09:51;93496.00;;;13.31;53.56
1472;BME280;963;42.644;23.336;2024-01-06T12:12:25;93486.84;;;13.47;54.43
1472;BME280;963;42.644;23.336;2024-01-06T12:14:50;93467.91;;;13.52;54.24
1472;BME280;963;42.644;23.336;2024-01-06T12:17:16;93478.06;;;13.57;53.94
1472;BME280;963;42.644;23.336;2024-01-06T12:19:42;93474.28;;;13.58;54.07
1472;BME280;963;42.644;23.336;2024-01-06T12:22:10;93476.00;;;13.30;54.33
1472;BME280;963;42.644;23.336;2024-01-06T12:24:37;93489.56;;;13.32;54.70
1472;BME280;963;42.644;23.336;2024-01-06T12:27:03;93506.84;;;13.44;53.81
1472;BME280;963;42.644;23.336;2024-01-06T12:29:28;93510.28;;;13.41;53.83
1472;BME280;963;42.644;23.336;2024-01-06T12:31:55;93507.28;;;13.35;53.66
1472;BME280;963;42.644;23.336;2024-01-06T12:34:21;93488.53;;;13.15;54.59
1472;BME280;963;42.644;23.336;2024-01-06T12:36:47;93511.47;;;13.29;54.49
1472;BME280;963;42.644;23.336;2024-01-06T12:39:13;93499.09;;;13.19;54.61
1472;BME280;963;42.644;23.336;2024-01-06T12:41:42;93508.50;;;13.24;54.63
1472;BME280;963;42.644;23.336;2024-01-06T12:44:08;93496.34;;;13.33;54.76
1472;BME280;963;42.644;23.336;2024-01-06T12:46:34;93483.06;;;13.48;54.07
1472;BME280;963;42.644;23.336;2024-01-06T12:49:00;93471.50;;;13.72;53.80
1472;BME280;963;42.644;23.336;2024-01-06T12:51:25;93465.38;;;13.82;53.52
1472;BME280;963;42.644;23.336;2024-01-06T12:53:51;93472.09;;;13.90;52.80
1472;BME280;963;42.644;23.336;2024-01-06T12:56:17;93458.59;;;13.81;52.91
1472;BME280;963;42.644;23.336;2024-01-06T12:58:42;93471.41;;;13.83;53.18
1472;BME280;963;42.644;23.336;2024-01-06T13:01:09;93459.28;;;13.85;53.38
1472;BME280;963;42.644;23.336;2024-01-06T13:03:34;93475.00;;;13.99;52.92
1472;BME280;963;42.644;23.336;2024-01-06T13:06:00;93466.28;;;14.36;52.17
1472;BME280;963;42.644;23.336;2024-01-06T13:08:26;93463.91;;;15.03;51.02
1472;BME280;963;42.644;23.336;2024-01-06T13:10:53;93462.00;;;15.77;48.82
1472;BME280;963;42.644;23.336;2024-01-06T13:13:18;93455.06;;;16.63;46.29
1472;BME280;963;42.644;23.336;2024-01-06T13:15:44;93459.91;;;18.14;43.78
1472;BME280;963;42.644;23.336;2024-01-06T13:18:11;93442.59;;;19.40;40.24
1472;BME280;963;42.644;23.336;2024-01-06T13:20:37;93423.78;;;20.47;38.44
1472;BME280;963;42.644;23.336;2024-01-06T13:23:06;93434.19;;;21.93;35.50
1472;BME280;963;42.644;23.336;2024-01-06T13:25:32;93436.56;;;22.37;34.58
1472;BME280;963;42.644;23.336;2024-01-06T13:27:57;93413.72;;;24.07;33.36
1472;BME280;963;42.644;23.336;2024-01-06T13:30:23;93417.63;;;25.73;31.44
1472;BME280;963;42.644;23.336;2024-01-06T13:32:50;93419.38;;;27.00;29.78